Terminal Aerodrome Forecast
Issued by NWS Sterling, VA

Current Version | Previous Version | Graphics & Text | Print | Product List | Glossary On
Versions: 1 2 3 4 5 6 7 8 9 10 11 12 13 14 15 16 17 18 19 20 21 22
348
FTUS41 KLWX 102320
TAFIAD
TAF
KIAD 102320Z 1100/1206 30011G18KT P6SM BKN060
     FM110600 29012G19KT P6SM FEW150 SCT250
     FM120100 30009KT P6SM FEW250=

USA.gov is the U.S. government's official web portal to all federal, state and local government web resources and services.